NFTF/TBU METAR and TAF weather

Enter ICAO airport designator
Station Type Date Time Source
NFTF METAR 2022/11/30 10:00 UTC NOAA

NFTF 301000Z 06004KT 9999 FEW015TCU BKN040 25/23 Q1013


Station Type Date Time Source
NFTF Decoded METAR 2022/11/30 10:00 UTC NOAA

Fua'Amotu, Tonga (NFTF) 21-14S 175-09W 41M
Nov 30, 2022 - 05:00 AM EST / 2022.11.30 1000 UTC
Wind: from the ENE (060 degrees) at 5 MPH (4 KT):0
Visibility: greater than 7 mile(s):0
Sky conditions: mostly cloudy
Weather: Towering cumulus clouds observed
Temperature: 77 F (25 C)
Dew Point: 73 F (23 C)
Relative Humidity: 88%
Pressure (altimeter): 29.91 in. Hg (1013 hPa)
ob: NFTF 301000Z 06004KT 9999 FEW015TCU BKN040 25/23 Q1013
cycle: 10

Station Type Date Time Source
NFTF TAF 2022/11/30 06:12 UTC NOAA

TAF NFTF 300508Z 3006/0106 06012KT 9999 FEW017

Example: see airport list